createdAt,value
2022-11-05T00:02:52.859Z,7.75
2022-11-05T00:05:35.346Z,8.45
2022-11-05T00:08:25.604Z,7.50
2022-11-05T00:10:55.741Z,7.80
2022-11-05T00:13:38.192Z,8.07
2022-11-05T00:16:20.845Z,8.18
2022-11-05T00:19:05.824Z,8.13
2022-11-05T00:21:48.553Z,8.90
2022-11-05T00:24:31.129Z,8.18
2022-11-05T00:27:01.161Z,7.95
2022-11-05T00:29:31.380Z,8.33
2022-11-05T00:32:01.524Z,8.33
2022-11-05T00:34:34.176Z,8.30
2022-11-05T00:37:04.346Z,9.10
2022-11-05T00:39:34.510Z,7.97
2022-11-05T00:42:17.006Z,8.80
2022-11-05T00:44:59.551Z,8.85
2022-11-05T00:47:42.060Z,8.60
2022-11-05T00:50:14.832Z,8.65
2022-11-05T00:52:57.618Z,8.13
2022-11-05T00:55:33.427Z,7.85
2022-11-05T00:58:05.629Z,8.63
2022-11-05T01:00:38.309Z,8.00
2022-11-05T01:03:11.318Z,8.70
2022-11-05T01:05:47.336Z,8.70
2022-11-05T01:08:20.071Z,8.35
2022-11-05T01:10:53.973Z,9.10
2022-11-05T01:13:28.428Z,8.40
2022-11-05T01:15:59.523Z,8.52
2022-11-05T01:21:02.022Z,8.07
2022-11-05T01:23:32.161Z,8.30
2022-11-05T01:26:02.192Z,8.57
2022-11-05T01:28:32.583Z,8.98
2022-11-05T01:31:02.894Z,8.55
2022-11-05T01:33:33.002Z,8.37
2022-11-05T01:36:08.252Z,8.57
2022-11-05T01:38:38.292Z,8.25
2022-11-05T01:41:09.578Z,7.90
2022-11-05T01:43:51.764Z,7.50
2022-11-05T01:46:26.183Z,7.80
2022-11-05T01:49:03.150Z,7.90
2022-11-05T01:51:36.445Z,7.60
2022-11-05T01:54:09.739Z,8.20
2022-11-05T01:56:45.935Z,7.90
2022-11-05T01:59:21.748Z,8.18
2022-11-05T02:01:52.262Z,8.38
2022-11-05T02:04:30.829Z,8.13
2022-11-05T02:07:03.919Z,8.27
2022-11-05T02:09:39.852Z,8.77
2022-11-05T02:12:10.705Z,9.00
2022-11-05T02:14:40.846Z,8.73
2022-11-05T02:17:21.874Z,8.47
2022-11-05T02:20:26.498Z,9.20
2022-11-05T02:23:37.894Z,9.10
2022-11-05T02:29:45.890Z,8.32
2022-11-05T02:32:34.070Z,8.95
2022-11-05T02:35:25.906Z,9.25
2022-11-05T02:38:03.239Z,7.72
2022-11-05T02:40:46.946Z,9.55
2022-11-05T02:43:26.993Z,8.88
2022-11-05T02:46:06.585Z,8.27
2022-11-05T02:48:49.466Z,9.05
2022-11-05T02:51:26.732Z,8.82
2022-11-05T02:54:04.939Z,8.60
2022-11-05T02:56:39.900Z,9.07
2022-11-05T02:59:09.942Z,8.40
2022-11-05T03:01:42.672Z,8.50
2022-11-05T03:04:20.055Z,8.20
2022-11-05T03:07:07.372Z,7.88
2022-11-05T03:10:20.468Z,8.48
2022-11-05T03:13:05.215Z,8.40
2022-11-05T03:15:51.504Z,7.82
2022-11-05T03:18:29.407Z,8.85
2022-11-05T03:21:09.278Z,9.10
2022-11-05T03:23:45.896Z,8.43
2022-11-05T03:26:22.273Z,8.52
2022-11-05T03:28:58.922Z,9.35
2022-11-05T03:31:32.664Z,8.48
2022-11-05T03:34:04.519Z,9.35
2022-11-05T03:36:41.354Z,9.00
2022-11-05T03:39:18.723Z,9.70
2022-11-05T03:41:54.064Z,15.75
2022-11-05T03:44:30.166Z,35.88
2022-11-05T03:47:06.370Z,9.93
2022-11-05T03:49:42.073Z,9.63
2022-11-05T03:52:19.447Z,10.40
2022-11-05T03:54:50.266Z,9.63
2022-11-05T03:57:25.948Z,10.23
2022-11-05T03:59:56.039Z,10.10
2022-11-05T04:02:28.710Z,17.23
2022-11-05T04:04:58.996Z,22.92
2022-11-05T04:07:44.118Z,20.07
2022-11-05T04:10:32.905Z,10.18
2022-11-05T04:13:15.387Z,10.00
2022-11-05T04:15:57.664Z,9.70
2022-11-05T04:18:27.856Z,10.02
2022-11-05T04:21:10.276Z,10.63
2022-11-05T04:23:55.388Z,9.65
2022-11-05T04:26:25.444Z,10.02
2022-11-05T04:29:08.249Z,10.07
2022-11-05T04:31:38.404Z,10.48
2022-11-05T04:34:09.087Z,10.83
2022-11-05T04:36:39.174Z,9.75
2022-11-05T04:39:12.114Z,9.48
2022-11-05T04:41:42.341Z,11.60
2022-11-05T04:44:12.476Z,10.27
2022-11-05T04:46:42.489Z,10.40
2022-11-05T04:49:12.548Z,10.25
2022-11-05T04:51:42.654Z,10.73
2022-11-05T04:54:15.384Z,10.37
2022-11-05T04:56:45.446Z,10.15
2022-11-05T04:59:15.503Z,10.73
2022-11-05T05:01:45.624Z,11.45
2022-11-05T05:04:15.986Z,10.90
2022-11-05T05:06:46.069Z,10.60
2022-11-05T05:09:19.005Z,24.70
2022-11-05T05:11:49.123Z,34.00
2022-11-05T05:14:19.282Z,13.20
2022-11-05T05:16:49.418Z,10.77
2022-11-05T05:19:19.511Z,10.90
2022-11-05T05:21:47.040Z,10.73
2022-11-05T05:24:25.051Z,10.77
2022-11-05T05:26:55.244Z,11.23
2022-11-05T05:29:25.292Z,10.47
2022-11-05T05:31:55.288Z,10.07
2022-11-05T05:34:25.385Z,9.87
2022-11-05T05:36:55.475Z,9.70
2022-11-05T05:39:28.144Z,13.73
2022-11-05T05:41:58.244Z,11.00
2022-11-05T05:44:28.358Z,10.27
2022-11-05T05:46:58.399Z,10.80
2022-11-05T05:49:28.454Z,9.80
2022-11-05T05:51:58.529Z,9.15
2022-11-05T05:54:34.208Z,10.33
2022-11-05T05:57:06.929Z,10.25
2022-11-05T05:59:37.223Z,9.65
2022-11-05T06:02:07.427Z,9.53
2022-11-05T06:04:37.589Z,10.33
2022-11-05T06:07:07.803Z,10.05
2022-11-05T06:09:40.482Z,9.23
2022-11-05T06:12:10.866Z,9.93
2022-11-05T06:14:40.997Z,10.48
2022-11-05T06:17:11.517Z,10.00
2022-11-05T06:19:41.597Z,10.30
2022-11-05T06:22:11.812Z,9.17
2022-11-05T06:24:44.619Z,9.70
2022-11-05T06:27:14.714Z,9.35
2022-11-05T06:29:44.770Z,9.23
2022-11-05T06:32:14.831Z,9.23
2022-11-05T06:34:44.875Z,9.70
2022-11-05T06:37:14.932Z,10.98
2022-11-05T06:39:47.644Z,9.85
2022-11-05T06:42:18.964Z,9.63
2022-11-05T06:44:49.844Z,9.57
2022-11-05T06:47:20.037Z,9.88
2022-11-05T06:49:50.314Z,9.40
2022-11-05T06:52:20.735Z,9.17
2022-11-05T06:54:53.536Z,9.55
2022-11-05T06:57:23.650Z,9.05
2022-11-05T06:59:59.975Z,8.93
2022-11-05T07:02:31.632Z,9.30
2022-11-05T07:05:01.676Z,9.60
2022-11-05T07:07:31.846Z,9.68
2022-11-05T07:10:04.702Z,9.67
2022-11-05T07:12:34.829Z,9.27
2022-11-05T07:15:04.970Z,9.23
2022-11-05T07:17:35.280Z,9.77
2022-11-05T07:20:06.080Z,8.68
2022-11-05T07:22:36.280Z,9.13
2022-11-05T07:25:10.517Z,9.07
2022-11-05T07:27:41.830Z,9.20
2022-11-05T07:30:13.616Z,7.88
2022-11-05T07:32:44.207Z,8.38
2022-11-05T07:35:14.342Z,8.05
2022-11-05T07:37:48.320Z,8.73
2022-11-05T07:40:22.502Z,8.02
2022-11-05T07:42:54.749Z,8.65
2022-11-05T07:45:26.263Z,8.98
2022-11-05T07:47:58.899Z,8.85
2022-11-05T07:50:31.400Z,8.52
2022-11-05T07:53:05.658Z,8.50
2022-11-05T07:55:40.363Z,8.38
2022-11-05T07:58:10.563Z,7.93
2022-11-05T08:00:40.966Z,10.60
2022-11-05T08:03:15.066Z,15.40
2022-11-05T08:05:48.982Z,9.77
2022-11-05T08:08:21.037Z,9.23
2022-11-05T08:10:53.801Z,8.10
2022-11-05T08:13:23.899Z,7.97
2022-11-05T08:15:53.945Z,8.80
2022-11-05T08:18:24.023Z,8.98
2022-11-05T08:20:54.102Z,9.07
2022-11-05T08:23:24.134Z,8.20
2022-11-05T08:25:57.337Z,8.02
2022-11-05T08:28:29.260Z,8.00
2022-11-05T08:31:00.785Z,7.35
2022-11-05T08:33:31.653Z,8.13
2022-11-05T08:36:06.030Z,8.20
2022-11-05T08:38:36.260Z,7.80
2022-11-05T08:41:09.240Z,7.90
2022-11-05T08:43:40.111Z,7.90
2022-11-05T08:46:10.582Z,8.20
2022-11-05T08:48:40.754Z,8.18
2022-11-05T08:51:10.830Z,7.70
2022-11-05T08:53:40.904Z,8.00
2022-11-05T08:56:13.714Z,8.43
2022-11-05T08:58:43.909Z,8.32
2022-11-05T09:01:14.077Z,7.50
2022-11-05T09:03:44.244Z,7.90
2022-11-05T09:06:14.664Z,7.67
2022-11-05T09:08:44.920Z,7.88
2022-11-05T09:11:18.327Z,7.93
2022-11-05T09:13:48.679Z,7.93
2022-11-05T09:16:23.463Z,7.22
2022-11-05T09:18:53.663Z,6.70
2022-11-05T09:21:23.746Z,7.13
2022-11-05T09:23:54.423Z,7.00
2022-11-05T09:26:27.294Z,6.90
2022-11-05T09:28:57.405Z,7.30
2022-11-05T09:31:27.494Z,6.37
2022-11-05T09:33:57.597Z,5.97
2022-11-05T09:36:27.651Z,6.13
2022-11-05T09:38:57.716Z,6.87
2022-11-05T09:41:33.910Z,13.83
2022-11-05T09:44:07.452Z,5.68
2022-11-05T09:46:49.138Z,5.80
2022-11-05T09:49:29.357Z,5.53
2022-11-05T09:52:01.334Z,5.63
2022-11-05T09:54:34.488Z,5.60
2022-11-05T09:57:14.446Z,6.22
2022-11-05T09:59:50.118Z,5.85
2022-11-05T10:02:24.322Z,6.47
2022-11-05T10:05:09.187Z,6.45
2022-11-05T10:07:48.223Z,5.75
2022-11-05T10:10:37.871Z,5.88
2022-11-05T10:13:25.050Z,6.07
2022-11-05T10:16:04.468Z,5.38
2022-11-05T10:18:38.355Z,15.90
2022-11-05T10:21:09.945Z,5.18
2022-11-05T10:23:40.102Z,4.70
2022-11-05T10:26:15.033Z,4.53
2022-11-05T10:28:47.738Z,4.20
2022-11-05T10:31:21.394Z,3.83
2022-11-05T10:33:56.086Z,4.20
2022-11-05T10:36:29.122Z,4.30
2022-11-05T10:39:04.563Z,3.83
2022-11-05T10:42:00.650Z,3.30
2022-11-05T10:44:42.713Z,3.90
2022-11-05T10:47:38.565Z,4.68
2022-11-05T10:50:14.348Z,4.40
2022-11-05T10:52:58.706Z,5.18
2022-11-05T10:55:32.287Z,6.20
2022-11-05T10:58:17.265Z,5.88
2022-11-05T11:01:07.336Z,4.88
2022-11-05T11:03:43.268Z,3.57
2022-11-05T11:06:26.346Z,4.07
2022-11-05T11:08:59.780Z,3.78
2022-11-05T11:11:34.141Z,4.15
2022-11-05T11:14:08.925Z,2.75
2022-11-05T11:16:44.055Z,2.78
2022-11-05T11:19:31.893Z,3.08
2022-11-05T11:22:29.066Z,3.42
2022-11-05T11:24:59.638Z,2.55
2022-11-05T11:30:04.259Z,2.88
2022-11-05T11:32:41.340Z,2.97
2022-11-05T11:35:25.691Z,4.45
2022-11-05T11:37:58.622Z,3.63
2022-11-05T11:40:34.645Z,2.35
2022-11-05T11:43:14.941Z,2.67
2022-11-05T11:45:51.011Z,2.40
2022-11-05T11:48:27.702Z,3.00
2022-11-05T11:51:00.017Z,2.72
2022-11-05T11:53:36.653Z,2.28
2022-11-05T11:56:20.266Z,2.30
2022-11-05T11:58:53.886Z,2.60
2022-11-05T12:02:10.113Z,2.25
2022-11-05T12:05:03.798Z,2.20
2022-11-05T12:07:53.061Z,2.35
2022-11-05T12:10:39.355Z,2.60
2022-11-05T12:13:57.736Z,14.50
2022-11-05T12:16:46.623Z,3.40
2022-11-05T12:19:30.726Z,3.00
2022-11-05T12:22:18.912Z,2.88
2022-11-05T12:25:16.485Z,2.15
2022-11-05T12:28:04.266Z,2.00
2022-11-05T12:30:44.986Z,2.13
2022-11-05T12:33:42.423Z,2.35
2022-11-05T12:36:26.157Z,2.42
2022-11-05T12:39:36.407Z,3.65
2022-11-05T12:42:20.397Z,2.40
2022-11-05T12:45:02.097Z,2.22
2022-11-05T12:47:53.923Z,2.22
2022-11-05T12:50:33.514Z,2.92
2022-11-05T12:53:36.451Z,2.90
2022-11-05T12:56:18.582Z,3.28
2022-11-05T12:58:55.519Z,2.78
2022-11-05T13:01:33.769Z,2.55
2022-11-05T13:04:08.933Z,2.50
2022-11-05T13:06:43.141Z,2.05
2022-11-05T13:09:19.523Z,2.88
2022-11-05T13:11:57.618Z,3.50
2022-11-05T13:14:31.997Z,2.47
2022-11-05T13:17:08.047Z,2.38
2022-11-05T13:19:44.392Z,2.70
2022-11-05T13:22:27.320Z,2.85
2022-11-05T13:25:03.678Z,3.25
2022-11-05T13:27:54.830Z,3.08
2022-11-05T13:30:28.372Z,2.60
2022-11-05T13:33:05.147Z,3.20
2022-11-05T13:35:43.511Z,2.45
2022-11-05T13:38:40.432Z,6.22
2022-11-05T13:41:28.041Z,2.58
2022-11-05T14:56:47.765Z,2.17
2022-11-05T14:59:56.897Z,2.17
2022-11-05T15:02:31.006Z,3.10
2022-11-05T15:05:51.886Z,2.92
2022-11-05T15:08:35.354Z,2.42
2022-11-05T15:11:16.653Z,2.90
2022-11-05T15:14:01.734Z,4.32
2022-11-05T15:16:38.281Z,2.70
2022-11-05T15:19:18.843Z,2.45
2022-11-05T15:21:54.863Z,2.55
2022-11-05T15:24:28.209Z,2.38
2022-11-05T15:27:11.387Z,1.95
2022-11-05T15:29:43.101Z,2.20
2022-11-05T15:32:20.260Z,2.42
2022-11-05T15:35:01.051Z,2.78
2022-11-05T15:37:37.053Z,2.13
2022-11-05T15:40:30.212Z,2.40
2022-11-05T15:43:27.228Z,2.08
2022-11-05T15:46:20.739Z,2.30
2022-11-05T15:48:56.681Z,3.65
2022-11-05T15:51:32.087Z,2.45
2022-11-05T15:54:29.053Z,2.67
2022-11-05T15:57:05.417Z,5.15
2022-11-05T15:59:35.795Z,3.72
2022-11-05T16:02:27.155Z,3.35
2022-11-05T16:04:58.537Z,4.40
2022-11-05T16:07:31.655Z,4.57
2022-11-05T16:10:12.525Z,4.57
2022-11-05T16:15:26.587Z,4.65
2022-11-05T16:18:01.143Z,4.85
2022-11-05T16:20:36.097Z,3.97
2022-11-05T16:23:09.213Z,6.07
2022-11-05T16:25:44.809Z,6.75
2022-11-05T16:28:25.062Z,7.43
2022-11-05T16:31:00.767Z,7.27
2022-11-05T16:33:38.217Z,6.88
2022-11-05T16:36:11.270Z,4.97
2022-11-05T16:38:41.762Z,4.75
2022-11-05T16:41:18.164Z,6.13
2022-11-05T16:43:55.840Z,5.72
2022-11-05T16:46:29.331Z,4.70
2022-11-05T16:49:00.034Z,4.07
2022-11-05T16:51:31.425Z,4.50
2022-11-05T16:54:01.537Z,3.70
2022-11-05T16:56:34.599Z,4.17
2022-11-05T16:59:05.943Z,4.55
2022-11-05T17:01:37.604Z,4.18
2022-11-05T17:04:07.795Z,4.90
2022-11-05T17:06:37.884Z,4.57
2022-11-05T17:09:08.052Z,5.32
2022-11-05T17:11:40.959Z,5.70
2022-11-05T17:14:15.553Z,5.10
2022-11-05T17:16:45.755Z,4.82
2022-11-05T17:19:18.775Z,5.10
2022-11-05T17:21:50.187Z,6.05
2022-11-05T17:24:20.410Z,5.55
2022-11-05T17:26:53.246Z,6.40
2022-11-05T17:29:25.131Z,6.10
2022-11-05T17:31:55.362Z,5.97
2022-11-05T17:34:25.490Z,6.67
2022-11-05T17:36:55.481Z,7.10
2022-11-05T17:39:31.398Z,8.30
2022-11-05T17:42:04.426Z,8.88
2022-11-05T17:44:34.753Z,8.65
2022-11-05T17:47:05.075Z,9.85
2022-11-05T17:49:35.122Z,8.30
2022-11-05T17:52:05.180Z,7.93
2022-11-05T17:54:35.312Z,6.90
2022-11-05T17:57:11.824Z,7.67
2022-11-05T17:59:44.691Z,6.78
2022-11-05T18:02:15.671Z,7.38
2022-11-05T18:04:45.927Z,7.80
2022-11-05T18:07:16.031Z,8.70
2022-11-05T18:09:46.584Z,8.20
2022-11-05T18:12:19.666Z,8.45
2022-11-05T18:14:50.037Z,9.05
2022-11-05T18:17:20.132Z,9.57
2022-11-05T18:19:52.911Z,10.03
2022-11-05T18:22:23.369Z,8.82
2022-11-05T18:24:55.801Z,8.55
2022-11-05T18:27:28.611Z,8.55
2022-11-05T18:29:58.714Z,8.68
2022-11-05T18:32:29.240Z,8.60
2022-11-05T18:34:59.432Z,11.93
2022-11-05T18:37:29.609Z,10.53
2022-11-05T18:39:59.885Z,9.27
2022-11-05T18:42:34.502Z,11.77
2022-11-05T18:45:04.525Z,28.60
2022-11-05T18:47:35.539Z,24.17
2022-11-05T18:50:09.505Z,9.50
2022-11-05T18:52:39.788Z,9.55
2022-11-05T18:55:11.969Z,8.87
2022-11-05T18:57:44.803Z,12.23
2022-11-05T19:00:17.153Z,13.10
2022-11-05T19:02:49.589Z,13.60
2022-11-05T19:05:28.999Z,13.57
2022-11-05T19:08:00.136Z,11.60
2022-11-05T19:10:31.406Z,10.80
2022-11-05T19:13:04.302Z,10.48
2022-11-05T19:15:34.799Z,9.13
2022-11-05T19:18:04.855Z,9.00
2022-11-05T19:20:37.968Z,11.98
2022-11-05T19:23:08.600Z,9.05
2022-11-05T19:25:41.104Z,8.50
2022-11-05T19:28:14.241Z,8.00
2022-11-05T19:30:44.741Z,10.57
2022-11-05T19:33:14.853Z,9.97
2022-11-05T19:35:45.184Z,10.77
2022-11-05T19:38:15.449Z,12.10
2022-11-05T19:40:50.879Z,14.98
2022-11-05T19:43:23.686Z,17.00
2022-11-05T19:45:53.922Z,16.50
2022-11-05T19:48:25.290Z,15.43
2022-11-05T19:50:56.145Z,13.15
2022-11-05T19:53:26.419Z,9.43
2022-11-05T19:55:56.679Z,9.30
2022-11-05T19:58:29.441Z,12.03
2022-11-05T20:00:59.501Z,12.25
2022-11-05T20:03:29.888Z,13.23
2022-11-05T20:06:06.399Z,8.77
2022-11-05T20:08:53.043Z,7.68
2022-11-05T20:11:27.207Z,7.93
2022-11-05T20:14:00.375Z,8.30
2022-11-05T20:16:36.970Z,11.70
2022-11-05T20:19:08.243Z,10.30
2022-11-05T20:21:38.820Z,9.98
2022-11-05T20:24:10.237Z,10.68
2022-11-05T20:26:40.864Z,9.95
2022-11-05T20:29:13.761Z,8.82
2022-11-05T20:31:43.955Z,7.88
2022-11-05T20:34:14.208Z,8.00
2022-11-05T20:36:44.351Z,9.70
2022-11-05T20:39:14.875Z,8.30
2022-11-05T20:41:45.201Z,8.50
2022-11-05T20:44:17.958Z,9.30
2022-11-05T20:46:48.108Z,8.85
2022-11-05T20:49:24.049Z,9.40
2022-11-05T20:51:55.764Z,7.95
2022-11-05T20:54:26.170Z,7.68
2022-11-05T20:56:56.722Z,6.72
2022-11-05T20:59:29.563Z,6.93
2022-11-05T21:01:59.700Z,7.10
2022-11-05T21:04:30.468Z,6.83
2022-11-05T21:07:00.852Z,6.60
2022-11-05T21:09:31.257Z,7.13
2022-11-05T21:12:13.517Z,6.70
2022-11-05T21:14:46.624Z,7.18
2022-11-05T21:17:16.742Z,7.60
2022-11-05T21:19:47.593Z,7.47
2022-11-05T21:22:18.137Z,6.90
2022-11-05T21:24:48.439Z,7.63
2022-11-05T21:27:18.525Z,8.63
2022-11-05T21:29:51.294Z,8.65
2022-11-05T21:32:21.443Z,7.03
2022-11-05T21:34:51.715Z,8.73
2022-11-05T21:37:21.830Z,9.33
2022-11-05T21:39:55.035Z,8.27
2022-11-05T21:42:25.260Z,9.15
2022-11-05T21:45:00.611Z,9.87
2022-11-05T21:47:31.808Z,9.05
2022-11-05T21:50:02.092Z,10.13
2022-11-05T21:52:44.726Z,8.53
2022-11-05T21:55:30.342Z,8.18
2022-11-05T21:58:27.572Z,10.38
2022-11-05T22:01:00.558Z,8.02
2022-11-05T22:03:31.484Z,8.10
2022-11-05T22:06:01.880Z,8.40
2022-11-05T22:08:32.204Z,6.43
2022-11-05T22:11:06.530Z,13.23
2022-11-05T22:13:36.773Z,10.15
2022-11-05T22:16:11.414Z,6.07
2022-11-05T22:18:41.565Z,6.80
2022-11-05T22:21:11.722Z,6.60
2022-11-05T22:23:41.841Z,7.13
2022-11-05T22:26:12.117Z,9.00
2022-11-05T22:28:42.239Z,6.37
2022-11-05T22:31:19.117Z,9.00
2022-11-05T22:33:49.535Z,7.10
2022-11-05T22:36:19.840Z,6.30
2022-11-05T22:38:50.118Z,7.43
2022-11-05T22:41:23.629Z,6.07
2022-11-05T22:43:53.802Z,6.05
2022-11-05T22:46:29.744Z,11.07
2022-11-05T22:49:00.391Z,5.72
2022-11-05T22:51:34.907Z,5.85
2022-11-05T22:54:06.268Z,5.88
2022-11-05T22:56:40.797Z,6.15
2022-11-05T22:59:17.080Z,6.18
2022-11-05T23:01:50.150Z,6.25
2022-11-05T23:04:20.332Z,5.97
2022-11-05T23:07:02.853Z,6.40
2022-11-05T23:09:48.460Z,7.15
2022-11-05T23:12:26.423Z,6.55
2022-11-05T23:14:58.137Z,6.10
2022-11-05T23:17:44.491Z,8.52
2022-11-05T23:20:30.483Z,6.47
2022-11-05T23:23:13.847Z,6.63
2022-11-05T23:25:44.143Z,6.40
2022-11-05T23:28:15.615Z,6.63
2022-11-05T23:30:59.729Z,6.63
2022-11-05T23:33:40.975Z,6.67
2022-11-05T23:38:57.926Z,7.35
2022-11-05T23:41:40.472Z,6.70
2022-11-05T23:44:24.668Z,6.28
2022-11-05T23:47:10.231Z,6.82
2022-11-05T23:49:43.755Z,6.95
2022-11-05T23:52:17.117Z,6.22
2022-11-05T23:54:47.358Z,6.15
2022-11-05T23:57:17.575Z,6.33
2022-11-05T23:59:47.697Z,8.10
